createdAt,value
2018-11-26T00:00:07.962Z,89.45
2018-11-26T00:02:36.091Z,90.18
2018-11-26T00:05:04.285Z,90.09
2018-11-26T00:07:33.374Z,89.54
2018-11-26T00:10:12.938Z,89.43
2018-11-26T00:12:41.088Z,89.59
2018-11-26T00:15:09.331Z,89.70
2018-11-26T00:17:37.457Z,90.22
2018-11-26T00:20:06.520Z,90.24
2018-11-26T00:22:34.706Z,89.50
2018-11-26T00:25:02.889Z,89.70
2018-11-26T00:27:31.103Z,89.61
2018-11-26T00:29:59.319Z,90.07
2018-11-26T00:32:27.458Z,90.32
2018-11-26T00:34:55.668Z,90.64
2018-11-26T00:37:23.800Z,90.86
2018-11-26T00:39:52.026Z,90.71
2018-11-26T00:42:20.183Z,89.89
2018-11-26T00:44:48.310Z,89.93
2018-11-26T00:47:16.450Z,90.49
2018-11-26T00:49:44.607Z,90.45
2018-11-26T00:52:12.773Z,90.53
2018-11-26T00:54:40.957Z,90.72
2018-11-26T00:57:09.096Z,90.50
2018-11-26T00:59:37.327Z,90.36
2018-11-26T01:02:05.742Z,90.68
2018-11-26T01:04:33.867Z,90.53
2018-11-26T01:07:02.004Z,90.88
2018-11-26T01:09:30.141Z,90.97
2018-11-26T01:11:58.283Z,91.21
2018-11-26T01:14:26.495Z,90.46
2018-11-26T01:16:54.622Z,90.39
2018-11-26T01:19:22.793Z,90.02
2018-11-26T01:21:51.868Z,91.08
2018-11-26T01:24:20.004Z,91.22
2018-11-26T01:26:48.154Z,90.83
2018-11-26T01:29:16.302Z,91.14
2018-11-26T01:31:44.478Z,89.89
2018-11-26T01:34:12.622Z,90.80
2018-11-26T01:36:40.805Z,90.81
2018-11-26T01:39:09.355Z,89.94
2018-11-26T01:41:37.626Z,89.74
2018-11-26T01:44:05.763Z,90.35
2018-11-26T01:46:33.924Z,89.59
2018-11-26T01:49:02.100Z,90.44
2018-11-26T01:51:30.231Z,89.86
2018-11-26T01:53:58.376Z,89.38
2018-11-26T01:56:26.516Z,89.39
2018-11-26T01:58:54.794Z,89.33
2018-11-26T02:01:22.977Z,89.12
2018-11-26T02:03:51.177Z,90.00
2018-11-26T02:06:19.308Z,89.65
2018-11-26T02:08:47.423Z,89.19
2018-11-26T02:11:15.561Z,88.67
2018-11-26T02:13:43.688Z,89.42
2018-11-26T02:16:11.901Z,88.90
2018-11-26T02:18:40.117Z,88.59
2018-11-26T02:21:08.247Z,89.12
2018-11-26T02:23:36.422Z,88.84
2018-11-26T02:26:04.701Z,88.94
2018-11-26T02:28:33.694Z,88.93
2018-11-26T02:31:01.827Z,89.08
2018-11-26T02:33:29.977Z,88.37
2018-11-26T02:35:58.103Z,89.05
2018-11-26T02:38:26.278Z,88.29
2018-11-26T02:40:54.459Z,87.23
2018-11-26T02:43:22.594Z,88.30
2018-11-26T02:45:50.791Z,87.54
2018-11-26T02:48:18.928Z,87.44
2018-11-26T02:50:47.155Z,87.94
2018-11-26T02:53:15.794Z,87.21
2018-11-26T02:55:44.008Z,87.74
2018-11-26T02:58:12.172Z,87.27
2018-11-26T03:00:40.454Z,88.33
2018-11-26T03:03:08.593Z,87.31
2018-11-26T03:05:36.807Z,87.43
2018-11-26T03:08:04.975Z,87.38
2018-11-26T03:10:33.231Z,86.88
2018-11-26T03:13:01.372Z,86.25
2018-11-26T03:15:29.500Z,87.50
2018-11-26T03:17:57.671Z,86.65
2018-11-26T03:20:25.936Z,87.03
2018-11-26T03:22:54.326Z,87.03
2018-11-26T03:25:22.459Z,86.35
2018-11-26T03:27:50.663Z,87.21
2018-11-26T03:30:19.803Z,87.41
2018-11-26T03:32:47.898Z,87.93
2018-11-26T03:35:16.119Z,87.45
2018-11-26T03:37:44.328Z,87.44
2018-11-26T03:40:13.280Z,87.09
2018-11-26T03:42:41.579Z,87.52
2018-11-26T03:45:14.834Z,86.54
2018-11-26T03:47:43.017Z,87.48
2018-11-26T03:50:12.047Z,87.00
2018-11-26T03:52:40.493Z,86.50
2018-11-26T03:55:09.794Z,86.03
2018-11-26T03:57:37.965Z,84.93
2018-11-26T04:00:10.948Z,84.29
2018-11-26T04:02:39.225Z,84.39
2018-11-26T04:05:08.417Z,84.74
2018-11-26T04:07:36.660Z,84.26
2018-11-26T04:10:06.189Z,85.05
2018-11-26T04:12:34.370Z,85.04
2018-11-26T04:15:02.512Z,83.57
2018-11-26T04:17:30.726Z,83.24
2018-11-26T04:19:58.899Z,83.61
2018-11-26T04:22:27.134Z,82.90
2018-11-26T04:24:55.243Z,82.33
2018-11-26T04:27:23.405Z,83.11
2018-11-26T04:29:51.602Z,82.17
2018-11-26T04:32:19.763Z,82.78
2018-11-26T04:34:47.931Z,82.99
2018-11-26T04:37:16.121Z,82.93
2018-11-26T04:39:44.335Z,82.43
2018-11-26T04:42:12.458Z,82.96
2018-11-26T04:44:40.609Z,82.28
2018-11-26T04:47:08.791Z,81.00
2018-11-26T04:49:36.972Z,82.25
2018-11-26T04:52:05.367Z,81.36
2018-11-26T04:54:33.522Z,82.13
2018-11-26T04:57:01.691Z,82.27
2018-11-26T04:59:29.867Z,81.50
2018-11-26T05:01:57.991Z,82.57
2018-11-26T05:04:26.176Z,82.60
2018-11-26T05:06:54.312Z,81.20
2018-11-26T05:09:22.470Z,81.97
2018-11-26T05:11:50.744Z,81.61
2018-11-26T05:14:18.909Z,81.64
2018-11-26T05:16:47.090Z,82.33
2018-11-26T05:19:15.267Z,81.85
2018-11-26T05:21:43.399Z,81.99
2018-11-26T05:24:11.918Z,82.53
2018-11-26T05:26:40.046Z,81.44
2018-11-26T05:29:08.258Z,83.20
2018-11-26T05:31:36.463Z,82.21
2018-11-26T05:34:04.596Z,82.65
2018-11-26T05:36:32.717Z,81.93
2018-11-26T05:39:00.866Z,82.82
2018-11-26T05:41:29.042Z,81.48
2018-11-26T05:43:57.171Z,82.90
2018-11-26T05:46:25.375Z,82.83
2018-11-26T05:48:53.542Z,82.62
2018-11-26T05:51:21.683Z,81.79
2018-11-26T05:53:49.811Z,81.87
2018-11-26T05:56:17.958Z,82.31
2018-11-26T05:58:46.224Z,82.99
2018-11-26T06:01:14.578Z,83.38
2018-11-26T06:03:42.716Z,83.42
2018-11-26T06:06:10.875Z,82.21
2018-11-26T06:08:39.158Z,83.10
2018-11-26T06:11:07.319Z,82.54
2018-11-26T06:13:35.999Z,82.57
2018-11-26T06:16:05.098Z,82.06
2018-11-26T06:18:33.218Z,82.86
2018-11-26T06:21:01.560Z,83.38
2018-11-26T06:23:29.780Z,82.77
2018-11-26T06:25:58.287Z,83.69
2018-11-26T06:28:26.502Z,82.02
2018-11-26T06:30:54.690Z,83.28
2018-11-26T06:33:22.922Z,82.34
2018-11-26T06:35:51.061Z,81.17
2018-11-26T06:38:19.735Z,82.69
2018-11-26T06:40:47.963Z,81.30
2018-11-26T06:43:17.361Z,81.83
2018-11-26T06:45:44.528Z,82.22
2018-11-26T06:48:12.666Z,82.29
2018-11-26T06:50:40.918Z,80.71
2018-11-26T06:53:09.130Z,82.86
2018-11-26T06:55:37.291Z,81.29
2018-11-26T06:58:05.447Z,80.78
2018-11-26T07:00:33.579Z,82.09
2018-11-26T07:03:01.807Z,82.37
2018-11-26T07:05:30.044Z,81.82
2018-11-26T07:07:58.469Z,82.72
2018-11-26T07:10:26.711Z,81.87
2018-11-26T07:12:55.793Z,82.75
2018-11-26T07:15:24.014Z,82.42
2018-11-26T07:17:52.125Z,82.89
2018-11-26T07:20:21.632Z,81.75
2018-11-26T07:22:49.769Z,81.74
2018-11-26T07:25:19.567Z,80.87
2018-11-26T07:27:52.088Z,81.38
2018-11-26T07:30:28.610Z,81.39
2018-11-26T07:32:56.821Z,81.84
2018-11-26T07:35:24.969Z,81.09
2018-11-26T07:37:53.161Z,80.38
2018-11-26T07:40:23.321Z,81.40
2018-11-26T07:42:56.032Z,81.06
2018-11-26T07:45:24.167Z,80.21
2018-11-26T07:47:52.308Z,80.95
2018-11-26T07:50:20.454Z,80.91
2018-11-26T07:52:48.670Z,80.13
2018-11-26T07:55:19.887Z,79.96
2018-11-26T07:57:48.063Z,80.87
2018-11-26T08:00:19.106Z,79.45
2018-11-26T08:02:47.747Z,79.58
2018-11-26T08:05:18.611Z,79.81
2018-11-26T08:07:46.969Z,80.25
2018-11-26T08:10:16.231Z,80.38
2018-11-26T08:12:45.055Z,80.60
2018-11-26T08:15:16.350Z,79.67
2018-11-26T08:17:44.499Z,79.78
2018-11-26T08:20:12.651Z,80.22
2018-11-26T08:22:41.215Z,80.26
2018-11-26T08:25:10.472Z,81.47
2018-11-26T08:27:39.030Z,80.70
2018-11-26T08:30:11.561Z,80.35
2018-11-26T08:32:39.991Z,80.05
2018-11-26T08:35:08.893Z,80.75
2018-11-26T08:37:37.172Z,80.45
2018-11-26T08:40:11.730Z,81.17
2018-11-26T08:42:40.018Z,80.06
2018-11-26T08:45:16.641Z,79.20
2018-11-26T08:47:50.342Z,79.79
2018-11-26T08:50:18.518Z,80.12
2018-11-26T08:52:46.678Z,80.11
2018-11-26T08:55:14.959Z,80.83
2018-11-26T08:57:43.101Z,78.52
2018-11-26T09:00:11.877Z,79.63
2018-11-26T09:02:46.089Z,79.02
2018-11-26T09:05:23.997Z,78.27
2018-11-26T09:07:47.797Z,78.84
2018-11-26T09:10:15.961Z,78.96
2018-11-26T09:12:44.148Z,78.36
2018-11-26T09:15:12.322Z,79.08
2018-11-26T09:17:40.444Z,78.53
2018-11-26T09:20:10.818Z,78.90
2018-11-26T09:22:39.357Z,77.90
2018-11-26T09:25:11.375Z,78.29
2018-11-26T09:27:39.540Z,76.84
2018-11-26T09:30:13.027Z,77.34
2018-11-26T09:32:42.033Z,77.63
2018-11-26T09:35:12.827Z,77.95
2018-11-26T09:37:41.108Z,78.63
2018-11-26T09:40:14.884Z,77.34
2018-11-26T09:42:43.110Z,77.22
2018-11-26T09:45:14.465Z,77.29
2018-11-26T09:47:42.648Z,76.37
2018-11-26T09:50:13.068Z,78.11
2018-11-26T09:52:41.226Z,77.26
2018-11-26T09:55:10.299Z,78.07
2018-11-26T09:57:38.504Z,76.26
2018-11-26T10:00:15.336Z,77.62
2018-11-26T10:02:44.583Z,78.02
2018-11-26T10:05:17.752Z,76.77
2018-11-26T10:07:45.983Z,76.03
2018-11-26T10:10:14.382Z,77.34
2018-11-26T10:12:43.433Z,76.31
2018-11-26T10:15:16.895Z,76.88
2018-11-26T10:17:45.089Z,77.58
2018-11-26T10:20:13.263Z,76.05
2018-11-26T10:22:41.828Z,76.65
2018-11-26T10:25:12.165Z,75.77
2018-11-26T10:27:40.722Z,76.01
2018-11-26T10:30:14.929Z,74.36
2018-11-26T10:32:43.549Z,75.64
2018-11-26T10:35:13.694Z,75.35
2018-11-26T10:37:42.361Z,75.36
2018-11-26T10:40:12.491Z,74.68
2018-11-26T10:42:40.617Z,74.06
2018-11-26T10:45:11.269Z,75.31
2018-11-26T10:47:39.463Z,74.31
2018-11-26T10:50:09.532Z,73.44
2018-11-26T10:52:37.669Z,74.87
2018-11-26T10:55:09.371Z,75.20
2018-11-26T10:57:37.526Z,75.32
2018-11-26T11:00:07.570Z,74.90
2018-11-26T11:02:41.694Z,74.57
2018-11-26T11:05:10.295Z,73.67
2018-11-26T11:07:38.557Z,73.13
2018-11-26T11:10:11.128Z,74.02
2018-11-26T11:12:39.403Z,74.51
2018-11-26T11:15:09.695Z,74.05
2018-11-26T11:17:37.927Z,74.31
2018-11-26T11:20:10.147Z,75.04
2018-11-26T11:22:38.295Z,74.40
2018-11-26T11:25:07.443Z,74.46
2018-11-26T11:27:35.733Z,75.34
2018-11-26T11:30:07.801Z,73.26
2018-11-26T11:32:36.255Z,74.18
2018-11-26T11:35:05.615Z,73.00
2018-11-26T11:37:33.865Z,73.92
2018-11-26T11:40:01.993Z,74.12
2018-11-26T11:42:30.192Z,75.82
2018-11-26T11:44:58.349Z,75.50
2018-11-26T11:47:26.541Z,75.59
2018-11-26T11:49:54.681Z,75.12
2018-11-26T11:52:23.346Z,76.50
2018-11-26T11:54:51.503Z,76.60
2018-11-26T11:57:19.655Z,77.02
2018-11-26T11:59:49.141Z,76.81
2018-11-26T12:02:17.525Z,76.53
2018-11-26T12:04:45.752Z,76.42
2018-11-26T12:07:14.029Z,74.88
2018-11-26T12:09:42.158Z,75.60
2018-11-26T12:12:10.328Z,75.90
2018-11-26T12:14:38.596Z,75.78
2018-11-26T12:17:06.763Z,74.34
2018-11-26T12:19:34.944Z,76.55
2018-11-26T12:22:03.147Z,75.74
2018-11-26T12:24:31.292Z,76.65
2018-11-26T12:26:59.528Z,75.56
2018-11-26T12:29:27.757Z,74.36
2018-11-26T12:31:55.917Z,74.69
2018-11-26T12:34:24.235Z,74.86
2018-11-26T12:36:57.751Z,75.00
2018-11-26T12:39:21.626Z,73.96
2018-11-26T12:41:49.850Z,73.40
2018-11-26T12:44:18.039Z,74.42
2018-11-26T12:46:46.167Z,73.77
2018-11-26T12:49:14.453Z,73.14
2018-11-26T12:51:42.640Z,73.72
2018-11-26T12:54:10.791Z,73.99
2018-11-26T12:56:39.902Z,73.70
2018-11-26T12:59:08.131Z,72.85
2018-11-26T13:01:36.347Z,71.60
2018-11-26T13:04:04.891Z,71.37
2018-11-26T13:06:33.104Z,71.51
2018-11-26T13:09:01.262Z,71.99
2018-11-26T13:11:30.363Z,72.45
2018-11-26T13:13:58.575Z,72.40
2018-11-26T13:16:26.994Z,71.65
2018-11-26T13:18:56.375Z,71.86
2018-11-26T13:21:24.706Z,71.83
2018-11-26T13:23:52.930Z,71.50
2018-11-26T13:26:21.218Z,71.17
2018-11-26T13:28:49.699Z,71.34
2018-11-26T13:31:18.189Z,72.06
2018-11-26T13:33:46.494Z,72.72
2018-11-26T13:36:14.668Z,71.85
2018-11-26T13:38:42.878Z,71.29
2018-11-26T13:41:11.129Z,72.44
2018-11-26T13:43:39.456Z,72.39
2018-11-26T13:46:07.690Z,70.88
2018-11-26T13:48:36.278Z,71.81
2018-11-26T13:51:04.494Z,71.22
2018-11-26T13:53:32.752Z,72.09
2018-11-26T13:56:00.935Z,71.78
2018-11-26T13:58:29.175Z,72.49
2018-11-26T14:00:57.545Z,73.07
2018-11-26T14:03:25.791Z,72.76
2018-11-26T14:05:53.981Z,72.23
2018-11-26T14:08:22.406Z,71.64
2018-11-26T14:10:50.676Z,72.11
2018-11-26T14:13:19.006Z,72.02
2018-11-26T14:15:47.224Z,71.24
2018-11-26T14:18:15.368Z,71.46
2018-11-26T14:20:43.515Z,72.45
2018-11-26T14:23:11.711Z,71.74
2018-11-26T14:25:40.121Z,73.32
2018-11-26T14:28:08.292Z,74.21
2018-11-26T14:30:37.197Z,73.54
2018-11-26T14:33:06.528Z,73.01
2018-11-26T14:35:34.900Z,74.63
2018-11-26T14:38:06.906Z,73.00
2018-11-26T14:40:39.505Z,73.36
2018-11-26T14:43:08.080Z,73.62
2018-11-26T14:45:36.314Z,74.33
2018-11-26T14:48:04.549Z,74.77
2018-11-26T14:50:33.462Z,75.63
2018-11-26T14:53:04.704Z,72.93
2018-11-26T14:55:35.913Z,73.70
2018-11-26T14:58:04.241Z,73.85
2018-11-26T15:00:32.374Z,75.74
2018-11-26T15:03:00.652Z,74.92
2018-11-26T15:05:28.968Z,73.90
2018-11-26T15:07:57.324Z,73.44
2018-11-26T15:10:26.321Z,73.75
2018-11-26T15:12:54.506Z,74.22
2018-11-26T15:15:27.706Z,73.58
2018-11-26T15:17:55.931Z,75.06
2018-11-26T15:20:26.292Z,73.85
2018-11-26T15:22:55.618Z,73.84
2018-11-26T15:25:24.972Z,73.40
2018-11-26T15:27:54.490Z,74.04
2018-11-26T15:30:23.084Z,75.15
2018-11-26T15:32:51.320Z,77.37
2018-11-26T15:35:20.689Z,77.07
2018-11-26T15:37:48.900Z,77.32
2018-11-26T15:40:18.771Z,76.89
2018-11-26T15:42:47.050Z,77.09
2018-11-26T15:45:17.627Z,76.57
2018-11-26T15:47:46.525Z,76.28
2018-11-26T15:50:14.798Z,77.15
2018-11-26T15:52:43.030Z,77.15
2018-11-26T15:55:12.582Z,77.34
2018-11-26T15:57:40.735Z,76.87
2018-11-26T16:00:12.616Z,77.36
2018-11-26T16:02:40.950Z,77.82
2018-11-26T16:05:11.018Z,77.71
2018-11-26T16:07:39.434Z,77.61
2018-11-26T16:10:10.411Z,77.77
2018-11-26T16:12:38.793Z,77.79
2018-11-26T16:15:16.985Z,78.12
2018-11-26T16:17:45.286Z,78.28
2018-11-26T16:20:15.120Z,78.55
2018-11-26T16:22:43.449Z,78.69
2018-11-26T16:25:13.011Z,78.71
2018-11-26T16:27:41.298Z,78.76
2018-11-26T16:30:11.289Z,78.33
2018-11-26T16:32:39.713Z,78.55
2018-11-26T16:35:14.488Z,78.82
2018-11-26T16:37:42.630Z,78.99
2018-11-26T16:40:13.280Z,79.80
2018-11-26T16:42:41.616Z,80.30
2018-11-26T16:45:13.332Z,80.26
2018-11-26T16:47:41.533Z,79.39
2018-11-26T16:50:11.779Z,79.92
2018-11-26T16:52:40.060Z,79.89
2018-11-26T16:55:13.415Z,79.93
2018-11-26T16:57:41.867Z,80.20
2018-11-26T17:00:19.220Z,80.63
2018-11-26T17:02:48.587Z,80.23
2018-11-26T17:05:19.444Z,80.05
2018-11-26T17:07:47.806Z,80.42
2018-11-26T17:10:16.135Z,80.53
2018-11-26T17:12:44.458Z,81.77
2018-11-26T17:15:13.920Z,82.59
2018-11-26T17:17:42.098Z,82.60
2018-11-26T17:20:12.412Z,81.61
2018-11-26T17:22:40.740Z,81.03
2018-11-26T17:25:10.353Z,81.20
2018-11-26T17:27:39.499Z,80.60
2018-11-26T17:30:19.033Z,79.66
2018-11-26T17:32:48.806Z,80.12
2018-11-26T17:35:17.377Z,79.50
2018-11-26T17:37:45.653Z,79.68
2018-11-26T17:40:19.170Z,79.30
2018-11-26T17:42:47.587Z,78.62
2018-11-26T17:45:16.550Z,79.51
2018-11-26T17:47:46.516Z,78.82
2018-11-26T17:50:17.055Z,78.95
2018-11-26T17:52:45.200Z,78.77
2018-11-26T17:55:13.702Z,79.76
2018-11-26T17:57:42.014Z,78.67
2018-11-26T18:00:12.616Z,79.23
2018-11-26T18:02:41.496Z,78.87
2018-11-26T18:05:18.041Z,78.35
2018-11-26T18:07:47.790Z,78.81
2018-11-26T18:10:16.095Z,78.51
2018-11-26T18:12:44.362Z,78.43
2018-11-26T18:15:14.373Z,79.15
2018-11-26T18:17:43.513Z,79.20
2018-11-26T18:20:13.850Z,79.41
2018-11-26T18:22:43.280Z,79.80
2018-11-26T18:25:12.066Z,80.59
2018-11-26T18:27:43.385Z,80.61
2018-11-26T18:30:13.969Z,80.29
2018-11-26T18:32:42.307Z,79.68
2018-11-26T18:35:10.644Z,79.23
2018-11-26T18:37:38.880Z,80.57
2018-11-26T18:40:10.607Z,79.60
2018-11-26T18:42:38.967Z,79.65
2018-11-26T18:45:15.714Z,80.79
2018-11-26T18:47:44.340Z,79.83
2018-11-26T18:50:16.619Z,79.42
2018-11-26T18:52:45.327Z,80.42
2018-11-26T18:55:13.610Z,80.63
2018-11-26T18:57:42.299Z,80.27
2018-11-26T19:00:15.172Z,80.66
2018-11-26T19:02:43.400Z,80.41
2018-11-26T19:05:12.601Z,81.44
2018-11-26T19:07:40.949Z,82.04
2018-11-26T19:10:15.424Z,81.96
2018-11-26T19:12:44.820Z,81.97
2018-11-26T19:15:16.264Z,81.20
2018-11-26T19:17:44.395Z,81.86
2018-11-26T19:20:13.076Z,81.45
2018-11-26T19:22:41.926Z,82.43
2018-11-26T19:25:12.674Z,81.47
2018-11-26T19:27:40.981Z,81.48
2018-11-26T19:30:13.349Z,81.30
2018-11-26T19:32:42.216Z,81.44
2018-11-26T19:35:11.777Z,83.27
2018-11-26T19:37:40.032Z,83.20
2018-11-26T19:40:13.799Z,83.02
2018-11-26T19:42:43.253Z,84.28
2018-11-26T19:45:13.824Z,85.04
2018-11-26T19:47:42.102Z,85.35
2018-11-26T19:50:12.036Z,85.20
2018-11-26T19:52:40.478Z,84.44
2018-11-26T19:55:14.272Z,84.10
2018-11-26T19:57:42.492Z,83.40
2018-11-26T20:00:13.187Z,83.56
2018-11-26T20:02:42.516Z,83.01
2018-11-26T20:05:17.916Z,83.13
2018-11-26T20:07:46.115Z,83.64
2018-11-26T20:10:14.336Z,85.45
2018-11-26T20:12:42.541Z,84.30
2018-11-26T20:15:13.635Z,84.41
2018-11-26T20:17:42.208Z,84.20
2018-11-26T20:20:10.671Z,83.91
2018-11-26T20:22:39.171Z,84.61
2018-11-26T20:25:11.206Z,84.62
2018-11-26T20:27:39.386Z,85.25
2018-11-26T20:30:11.392Z,85.30
2018-11-26T20:32:40.308Z,84.28
2018-11-26T20:35:09.660Z,85.11
2018-11-26T20:37:38.044Z,84.61
2018-11-26T20:40:09.981Z,85.17
2018-11-26T20:42:38.501Z,85.55
2018-11-26T20:45:12.708Z,84.34
2018-11-26T20:47:40.917Z,84.48
2018-11-26T20:50:17.587Z,84.34
2018-11-26T20:52:45.759Z,84.77
2018-11-26T20:55:15.563Z,84.99
2018-11-26T20:57:44.900Z,86.64
2018-11-26T21:00:16.516Z,86.70
2018-11-26T21:02:45.341Z,86.62
2018-11-26T21:05:13.576Z,87.02
2018-11-26T21:07:41.941Z,86.66
2018-11-26T21:10:11.637Z,86.58
2018-11-26T21:12:39.976Z,86.96
2018-11-26T21:15:12.780Z,86.52
2018-11-26T21:17:41.098Z,85.94
2018-11-26T21:20:11.409Z,85.28
2018-11-26T21:22:41.561Z,85.02
2018-11-26T21:25:12.102Z,85.32
2018-11-26T21:27:40.355Z,85.56
2018-11-26T21:30:14.805Z,86.31
2018-11-26T21:32:43.124Z,85.09
2018-11-26T21:35:12.857Z,84.72
2018-11-26T21:37:42.244Z,84.34
2018-11-26T21:40:11.710Z,85.17
2018-11-26T21:42:46.445Z,85.97
2018-11-26T21:45:17.100Z,85.73
2018-11-26T21:47:45.378Z,86.03
2018-11-26T21:50:15.214Z,86.11
2018-11-26T21:52:43.594Z,85.86
2018-11-26T21:55:13.681Z,86.32
2018-11-26T21:57:41.973Z,85.94
2018-11-26T22:00:23.355Z,85.80
2018-11-26T22:02:51.914Z,85.73
2018-11-26T22:05:20.166Z,87.28
2018-11-26T22:07:48.344Z,85.99
2018-11-26T22:10:20.578Z,85.24
2018-11-26T22:12:49.945Z,85.36
2018-11-26T22:15:18.116Z,85.47
2018-11-26T22:17:46.307Z,85.81
2018-11-26T22:20:27.741Z,85.48
2018-11-26T22:22:56.343Z,84.84
2018-11-26T22:25:24.497Z,84.84
2018-11-26T22:27:53.360Z,85.11
2018-11-26T22:30:30.671Z,85.73
2018-11-26T22:32:58.961Z,85.14
2018-11-26T22:35:27.184Z,85.44
2018-11-26T22:37:55.437Z,85.41
2018-11-26T22:40:24.800Z,86.01
2018-11-26T22:42:53.176Z,85.80
2018-11-26T22:45:23.215Z,85.18
2018-11-26T22:47:56.561Z,85.01
2018-11-26T22:50:24.798Z,84.17
2018-11-26T22:52:52.993Z,83.74
2018-11-26T22:55:21.195Z,83.56
2018-11-26T22:57:49.321Z,83.65
2018-11-26T23:00:24.808Z,83.23
2018-11-26T23:02:54.176Z,82.96
2018-11-26T23:05:22.354Z,83.13
2018-11-26T23:07:50.529Z,82.78
2018-11-26T23:10:18.667Z,83.01
2018-11-26T23:12:46.876Z,83.51
2018-11-26T23:15:15.681Z,83.82
2018-11-26T23:17:44.447Z,83.04
2018-11-26T23:20:13.743Z,83.55
2018-11-26T23:22:42.000Z,84.40
2018-11-26T23:25:16.185Z,85.54
2018-11-26T23:27:44.404Z,86.21
2018-11-26T23:30:17.919Z,85.87
2018-11-26T23:32:47.339Z,86.12
2018-11-26T23:35:15.467Z,85.48
2018-11-26T23:37:43.683Z,85.26
2018-11-26T23:40:12.655Z,85.23
2018-11-26T23:42:40.827Z,84.63
2018-11-26T23:45:11.806Z,83.95
2018-11-26T23:47:40.051Z,84.50
2018-11-26T23:50:09.460Z,84.91
2018-11-26T23:52:38.947Z,84.62
2018-11-26T23:55:08.036Z,84.57
2018-11-26T23:57:36.186Z,84.75
